sensor_id;sensor_type;location;lat;lon;timestamp;temperature;humidity
51557;DHT22;38766;53.194;5.532;2024-03-23T00:55:27;7.10;99.90
51557;DHT22;38766;53.194;5.532;2024-03-23T00:57:53;7.10;99.90
51557;DHT22;38766;53.194;5.532;2024-03-23T01:00:18;7.10;99.90
51557;DHT22;38766;53.194;5.532;2024-03-23T01:02:44;7.10;99.90
51557;DHT22;38766;53.194;5.532;2024-03-23T01:05:10;7.10;99.90
51557;DHT22;38766;53.194;5.532;2024-03-23T01:07:35;7.10;99.90
51557;DHT22;38766;53.194;5.532;2024-03-23T01:10:01;7.10;99.90
51557;DHT22;38766;53.194;5.532;2024-03-23T01:12:26;7.10;99.90
51557;DHT22;38766;53.194;5.532;2024-03-23T01:14:52;7.10;99.90
51557;DHT22;38766;53.194;5.532;2024-03-23T01:17:18;7.10;99.90
51557;DHT22;38766;53.194;5.532;2024-03-23T01:19:43;7.10;99.90
51557;DHT22;38766;53.194;5.532;2024-03-23T01:22:09;7.10;99.90
51557;DHT22;38766;53.194;5.532;2024-03-23T01:24:35;7.10;99.90
51557;DHT22;38766;53.194;5.532;2024-03-23T01:27:01;7.10;99.90
51557;DHT22;38766;53.194;5.532;2024-03-23T01:29:27;7.10;99.90
51557;DHT22;38766;53.194;5.532;2024-03-23T01:31:52;7.10;99.90
51557;DHT22;38766;53.194;5.532;2024-03-23T01:34:18;7.10;99.90
51557;DHT22;38766;53.194;5.532;2024-03-23T01:36:45;7.10;99.90
51557;DHT22;38766;53.194;5.532;2024-03-23T01:39:12;7.10;99.90
51557;DHT22;38766;53.194;5.532;2024-03-23T01:41:37;7.10;99.90
51557;DHT22;38766;53.194;5.532;2024-03-23T01:44:07;7.10;99.90
51557;DHT22;38766;53.194;5.532;2024-03-23T01:46:36;7.10;99.90
51557;DHT22;38766;53.194;5.532;2024-03-23T01:49:02;7.10;99.90
51557;DHT22;38766;53.194;5.532;2024-03-23T01:51:29;7.00;99.90
51557;DHT22;38766;53.194;5.532;2024-03-23T01:53:56;7.00;99.90
51557;DHT22;38766;53.194;5.532;2024-03-23T01:56:22;7.00;99.90
51557;DHT22;38766;53.194;5.532;2024-03-23T01:58:47;7.00;99.90
51557;DHT22;38766;53.194;5.532;2024-03-23T02:01:13;7.00;99.90
51557;DHT22;38766;53.194;5.532;2024-03-23T02:03:38;7.00;99.90
51557;DHT22;38766;53.194;5.532;2024-03-23T02:06:05;7.00;99.90
51557;DHT22;38766;53.194;5.532;2024-03-23T02:08:32;7.00;99.90
51557;DHT22;38766;53.194;5.532;2024-03-23T02:10:58;7.00;99.90
51557;DHT22;38766;53.194;5.532;2024-03-23T02:13:24;7.00;99.90
51557;DHT22;38766;53.194;5.532;2024-03-23T02:15:49;7.00;99.90
51557;DHT22;38766;53.194;5.532;2024-03-23T02:18:15;7.00;99.90
51557;DHT22;38766;53.194;5.532;2024-03-23T02:20:41;7.00;99.90
51557;DHT22;38766;53.194;5.532;2024-03-23T02:23:16;7.00;99.90
51557;DHT22;38766;53.194;5.532;2024-03-23T02:25:43;7.00;99.90
51557;DHT22;38766;53.194;5.532;2024-03-23T02:28:09;7.00;99.90
51557;DHT22;38766;53.194;5.532;2024-03-23T02:30:34;7.00;99.90
51557;DHT22;38766;53.194;5.532;2024-03-23T02:33:00;7.00;99.90
51557;DHT22;38766;53.194;5.532;2024-03-23T02:35:26;7.00;99.90
51557;DHT22;38766;53.194;5.532;2024-03-23T02:37:51;7.00;99.90
51557;DHT22;38766;53.194;5.532;2024-03-23T02:40:19;7.00;99.90
51557;DHT22;38766;53.194;5.532;2024-03-23T02:42:45;7.00;99.90
51557;DHT22;38766;53.194;5.532;2024-03-23T02:45:10;7.00;99.90
51557;DHT22;38766;53.194;5.532;2024-03-23T02:47:36;7.00;99.90
51557;DHT22;38766;53.194;5.532;2024-03-23T02:50:02;7.00;99.90
51557;DHT22;38766;53.194;5.532;2024-03-23T02:52:27;7.00;99.90
51557;DHT22;38766;53.194;5.532;2024-03-23T02:54:53;7.00;99.90
51557;DHT22;38766;53.194;5.532;2024-03-23T02:57:19;7.00;99.90
51557;DHT22;38766;53.194;5.532;2024-03-23T02:59:44;7.00;99.90
51557;DHT22;38766;53.194;5.532;2024-03-23T03:02:11;7.00;99.90
51557;DHT22;38766;53.194;5.532;2024-03-23T03:04:37;7.00;99.90
51557;DHT22;38766;53.194;5.532;2024-03-23T03:07:02;7.00;99.90
51557;DHT22;38766;53.194;5.532;2024-03-23T03:09:28;7.00;99.90
51557;DHT22;38766;53.194;5.532;2024-03-23T03:11:54;6.90;99.90
51557;DHT22;38766;53.194;5.532;2024-03-23T03:14:19;6.90;99.90
51557;DHT22;38766;53.194;5.532;2024-03-23T03:16:45;6.90;99.90
51557;DHT22;38766;53.194;5.532;2024-03-23T03:19:11;6.90;99.90
51557;DHT22;38766;53.194;5.532;2024-03-23T03:21:37;6.90;99.90
51557;DHT22;38766;53.194;5.532;2024-03-23T03:24:03;6.90;99.90
51557;DHT22;38766;53.194;5.532;2024-03-23T03:26:28;6.90;99.90
51557;DHT22;38766;53.194;5.532;2024-03-23T03:28:54;6.80;99.90
51557;DHT22;38766;53.194;5.532;2024-03-23T03:31:20;6.90;99.90
51557;DHT22;38766;53.194;5.532;2024-03-23T03:33:46;6.90;99.90
51557;DHT22;38766;53.194;5.532;2024-03-23T03:36:12;6.90;99.90
51557;DHT22;38766;53.194;5.532;2024-03-23T03:38:37;6.90;99.90
51557;DHT22;38766;53.194;5.532;2024-03-23T03:41:06;6.90;99.90
51557;DHT22;38766;53.194;5.532;2024-03-23T03:43:32;6.90;99.90
51557;DHT22;38766;53.194;5.532;2024-03-23T03:46:00;6.90;99.90
51557;DHT22;38766;53.194;5.532;2024-03-23T03:48:26;6.90;99.90
51557;DHT22;38766;53.194;5.532;2024-03-23T03:50:53;6.90;99.90
51557;DHT22;38766;53.194;5.532;2024-03-23T03:53:19;6.90;99.90
51557;DHT22;38766;53.194;5.532;2024-03-23T03:55:45;6.90;99.90
51557;DHT22;38766;53.194;5.532;2024-03-23T03:58:10;6.90;99.90
51557;DHT22;38766;53.194;5.532;2024-03-23T04:00:36;6.90;99.90
51557;DHT22;38766;53.194;5.532;2024-03-23T04:03:02;6.90;99.90
51557;DHT22;38766;53.194;5.532;2024-03-23T04:05:28;6.90;99.90
51557;DHT22;38766;53.194;5.532;2024-03-23T04:07:53;6.90;99.90
51557;DHT22;38766;53.194;5.532;2024-03-23T04:10:19;6.90;99.90
51557;DHT22;38766;53.194;5.532;2024-03-23T04:12:45;6.90;99.90
51557;DHT22;38766;53.194;5.532;2024-03-23T04:15:11;6.80;99.90
51557;DHT22;38766;53.194;5.532;2024-03-23T04:17:37;6.80;99.90
51557;DHT22;38766;53.194;5.532;2024-03-23T04:20:03;6.80;99.90
51557;DHT22;38766;53.194;5.532;2024-03-23T04:22:34;6.80;99.90
51557;DHT22;38766;53.194;5.532;2024-03-23T04:25:00;6.80;99.90
51557;DHT22;38766;53.194;5.532;2024-03-23T04:27:25;6.90;99.90
51557;DHT22;38766;53.194;5.532;2024-03-23T04:29:52;6.90;99.90
51557;DHT22;38766;53.194;5.532;2024-03-23T04:32:18;6.90;99.90
51557;DHT22;38766;53.194;5.532;2024-03-23T04:34:44;6.90;99.90
51557;DHT22;38766;53.194;5.532;2024-03-23T04:37:10;6.90;99.90
51557;DHT22;38766;53.194;5.532;2024-03-23T04:39:36;7.00;99.90
51557;DHT22;38766;53.194;5.532;2024-03-23T04:42:03;7.00;99.90
51557;DHT22;38766;53.194;5.532;2024-03-23T04:44:29;7.00;99.90
51557;DHT22;38766;53.194;5.532;2024-03-23T04:46:54;7.00;99.90
51557;DHT22;38766;53.194;5.532;2024-03-23T04:49:21;7.00;99.90
51557;DHT22;38766;53.194;5.532;2024-03-23T04:51:47;7.00;99.90
51557;DHT22;38766;53.194;5.532;2024-03-23T04:54:12;7.00;99.90
51557;DHT22;38766;53.194;5.532;2024-03-23T04:56:38;7.00;99.90
51557;DHT22;38766;53.194;5.532;2024-03-23T04:59:04;7.00;99.90
51557;DHT22;38766;53.194;5.532;2024-03-23T05:01:33;7.10;99.90
51557;DHT22;38766;53.194;5.532;2024-03-23T05:03:59;7.10;99.90
51557;DHT22;38766;53.194;5.532;2024-03-23T05:06:25;7.00;99.90
51557;DHT22;38766;53.194;5.532;2024-03-23T05:08:51;7.00;99.90
51557;DHT22;38766;53.194;5.532;2024-03-23T05:11:17;7.00;99.90
51557;DHT22;38766;53.194;5.532;2024-03-23T05:13:43;7.00;99.90
51557;DHT22;38766;53.194;5.532;2024-03-23T05:16:09;7.00;99.90
51557;DHT22;38766;53.194;5.532;2024-03-23T05:18:38;7.00;99.90
51557;DHT22;38766;53.194;5.532;2024-03-23T05:21:07;7.00;99.90
51557;DHT22;38766;53.194;5.532;2024-03-23T05:23:32;7.00;99.90
51557;DHT22;38766;53.194;5.532;2024-03-23T05:25:58;7.00;99.90
51557;DHT22;38766;53.194;5.532;2024-03-23T05:28:23;7.00;99.90
51557;DHT22;38766;53.194;5.532;2024-03-23T05:30:53;7.00;99.90
51557;DHT22;38766;53.194;5.532;2024-03-23T05:33:20;6.90;99.90
51557;DHT22;38766;53.194;5.532;2024-03-23T05:35:46;6.90;99.90
51557;DHT22;38766;53.194;5.532;2024-03-23T05:38:13;6.90;99.90
51557;DHT22;38766;53.194;5.532;2024-03-23T05:40:39;6.90;99.90
51557;DHT22;38766;53.194;5.532;2024-03-23T05:43:06;6.90;99.90
51557;DHT22;38766;53.194;5.532;2024-03-23T05:45:32;6.90;99.90
51557;DHT22;38766;53.194;5.532;2024-03-23T05:47:58;6.90;99.90
51557;DHT22;38766;53.194;5.532;2024-03-23T05:50:23;6.90;99.90
51557;DHT22;38766;53.194;5.532;2024-03-23T05:52:49;7.00;99.90
51557;DHT22;38766;53.194;5.532;2024-03-23T05:55:15;6.90;99.90
51557;DHT22;38766;53.194;5.532;2024-03-23T05:57:41;7.00;99.90
51557;DHT22;38766;53.194;5.532;2024-03-23T06:00:07;7.00;99.90
51557;DHT22;38766;53.194;5.532;2024-03-23T06:02:42;7.00;99.90
51557;DHT22;38766;53.194;5.532;2024-03-23T06:05:10;7.00;99.90
51557;DHT22;38766;53.194;5.532;2024-03-23T06:07:36;7.00;99.90
51557;DHT22;38766;53.194;5.532;2024-03-23T06:10:02;7.00;99.90
51557;DHT22;38766;53.194;5.532;2024-03-23T06:12:28;7.00;99.90
51557;DHT22;38766;53.194;5.532;2024-03-23T06:14:53;7.00;99.90
51557;DHT22;38766;53.194;5.532;2024-03-23T06:17:19;6.90;99.90
51557;DHT22;38766;53.194;5.532;2024-03-23T06:19:44;6.90;99.90
51557;DHT22;38766;53.194;5.532;2024-03-23T06:22:10;6.90;99.90
51557;DHT22;38766;53.194;5.532;2024-03-23T06:24:36;6.90;99.90
51557;DHT22;38766;53.194;5.532;2024-03-23T06:27:01;6.80;99.90
51557;DHT22;38766;53.194;5.532;2024-03-23T06:29:27;6.70;99.90
51557;DHT22;38766;53.194;5.532;2024-03-23T06:31:55;6.70;99.90
51557;DHT22;38766;53.194;5.532;2024-03-23T06:34:21;6.70;99.90
51557;DHT22;38766;53.194;5.532;2024-03-23T06:36:48;6.70;99.90
51557;DHT22;38766;53.194;5.532;2024-03-23T06:39:14;6.70;99.90
51557;DHT22;38766;53.194;5.532;2024-03-23T06:41:52;6.80;99.90
51557;DHT22;38766;53.194;5.532;2024-03-23T06:44:18;6.80;99.90
51557;DHT22;38766;53.194;5.532;2024-03-23T06:46:44;6.90;99.90
51557;DHT22;38766;53.194;5.532;2024-03-23T06:49:10;6.90;99.90
51557;DHT22;38766;53.194;5.532;2024-03-23T06:51:36;7.00;99.90
51557;DHT22;38766;53.194;5.532;2024-03-23T06:54:03;7.10;99.90
51557;DHT22;38766;53.194;5.532;2024-03-23T06:56:29;7.30;99.90
51557;DHT22;38766;53.194;5.532;2024-03-23T06:58:56;7.30;99.90
51557;DHT22;38766;53.194;5.532;2024-03-23T07:01:21;7.20;99.90
51557;DHT22;38766;53.194;5.532;2024-03-23T07:03:47;7.10;99.90
51557;DHT22;38766;53.194;5.532;2024-03-23T07:06:13;7.10;99.90
51557;DHT22;38766;53.194;5.532;2024-03-23T07:08:38;7.00;99.90
51557;DHT22;38766;53.194;5.532;2024-03-23T07:11:04;6.90;99.90
51557;DHT22;38766;53.194;5.532;2024-03-23T07:13:30;7.00;99.90
51557;DHT22;38766;53.194;5.532;2024-03-23T07:15:56;7.00;99.90
51557;DHT22;38766;53.194;5.532;2024-03-23T07:18:23;7.10;99.90
51557;DHT22;38766;53.194;5.532;2024-03-23T07:20:58;7.20;99.90
51557;DHT22;38766;53.194;5.532;2024-03-23T07:23:24;7.40;99.90
51557;DHT22;38766;53.194;5.532;2024-03-23T07:26:02;7.50;99.90
51557;DHT22;38766;53.194;5.532;2024-03-23T07:28:32;7.70;99.90
51557;DHT22;38766;53.194;5.532;2024-03-23T07:31:05;8.50;99.90
51557;DHT22;38766;53.194;5.532;2024-03-23T07:33:31;9.70;99.90
51557;DHT22;38766;53.194;5.532;2024-03-23T07:35:57;10.70;99.90
51557;DHT22;38766;53.194;5.532;2024-03-23T07:38:27;11.50;99.90
51557;DHT22;38766;53.194;5.532;2024-03-23T07:41:02;11.50;99.90
51557;DHT22;38766;53.194;5.532;2024-03-23T07:43:28;11.00;99.90
51557;DHT22;38766;53.194;5.532;2024-03-23T07:45:54;10.30;99.90
51557;DHT22;38766;53.194;5.532;2024-03-23T07:48:21;10.20;99.90
51557;DHT22;38766;53.194;5.532;2024-03-23T07:53:28;10.70;99.90
51557;DHT22;38766;53.194;5.532;2024-03-23T07:56:14;10.90;99.90
51557;DHT22;38766;53.194;5.532;2024-03-23T07:58:41;11.00;99.90
51557;DHT22;38766;53.194;5.532;2024-03-23T08:01:11;11.10;99.90
51557;DHT22;38766;53.194;5.532;2024-03-23T08:03:38;11.00;99.90
51557;DHT22;38766;53.194;5.532;2024-03-23T08:08:36;10.50;99.90
51557;DHT22;38766;53.194;5.532;2024-03-23T08:11:02;10.50;99.90
51557;DHT22;38766;53.194;5.532;2024-03-23T08:13:29;10.60;99.90
51557;DHT22;38766;53.194;5.532;2024-03-23T08:15:58;10.50;99.90
51557;DHT22;38766;53.194;5.532;2024-03-23T08:18:24;10.10;99.90
51557;DHT22;38766;53.194;5.532;2024-03-23T08:21:00;10.00;99.90
51557;DHT22;38766;53.194;5.532;2024-03-23T08:23:27;9.70;99.90
51557;DHT22;38766;53.194;5.532;2024-03-23T08:26:00;9.50;99.90
51557;DHT22;38766;53.194;5.532;2024-03-23T08:28:27;9.20;99.90
51557;DHT22;38766;53.194;5.532;2024-03-23T08:30:53;9.30;99.90
51557;DHT22;38766;53.194;5.532;2024-03-23T08:33:19;9.40;99.90
51557;DHT22;38766;53.194;5.532;2024-03-23T08:35:55;9.60;99.90
51557;DHT22;38766;53.194;5.532;2024-03-23T08:38:21;9.50;99.90
51557;DHT22;38766;53.194;5.532;2024-03-23T08:40:47;9.40;99.90
51557;DHT22;38766;53.194;5.532;2024-03-23T08:43:13;9.10;99.90
51557;DHT22;38766;53.194;5.532;2024-03-23T08:45:38;8.90;99.90
51557;DHT22;38766;53.194;5.532;2024-03-23T08:48:04;8.60;99.90
51557;DHT22;38766;53.194;5.532;2024-03-23T08:50:30;8.30;99.90
51557;DHT22;38766;53.194;5.532;2024-03-23T08:52:56;8.10;99.90
51557;DHT22;38766;53.194;5.532;2024-03-23T08:55:21;8.00;99.90
51557;DHT22;38766;53.194;5.532;2024-03-23T08:57:47;8.10;99.90
51557;DHT22;38766;53.194;5.532;2024-03-23T09:00:13;8.40;99.90
51557;DHT22;38766;53.194;5.532;2024-03-23T09:02:39;8.90;99.90
51557;DHT22;38766;53.194;5.532;2024-03-23T09:05:05;9.20;99.90
51557;DHT22;38766;53.194;5.532;2024-03-23T09:07:31;9.40;99.90
51557;DHT22;38766;53.194;5.532;2024-03-23T09:09:57;9.70;99.90
51557;DHT22;38766;53.194;5.532;2024-03-23T09:12:23;10.00;99.90
51557;DHT22;38766;53.194;5.532;2024-03-23T09:14:52;10.20;99.90
51557;DHT22;38766;53.194;5.532;2024-03-23T09:17:18;10.30;99.90
51557;DHT22;38766;53.194;5.532;2024-03-23T09:19:44;10.20;99.90
51557;DHT22;38766;53.194;5.532;2024-03-23T09:22:10;10.10;99.90
51557;DHT22;38766;53.194;5.532;2024-03-23T09:24:35;9.80;99.90
51557;DHT22;38766;53.194;5.532;2024-03-23T09:27:02;9.30;99.90
51557;DHT22;38766;53.194;5.532;2024-03-23T09:29:28;8.90;99.90
51557;DHT22;38766;53.194;5.532;2024-03-23T09:31:54;8.70;99.90
51557;DHT22;38766;53.194;5.532;2024-03-23T09:34:19;8.80;99.90
51557;DHT22;38766;53.194;5.532;2024-03-23T09:36:45;8.90;99.90
51557;DHT22;38766;53.194;5.532;2024-03-23T09:39:11;9.20;99.90
51557;DHT22;38766;53.194;5.532;2024-03-23T09:41:36;9.40;99.90
51557;DHT22;38766;53.194;5.532;2024-03-23T09:44:02;9.50;99.90
51557;DHT22;38766;53.194;5.532;2024-03-23T09:46:28;9.50;99.90
51557;DHT22;38766;53.194;5.532;2024-03-23T09:48:59;9.40;99.90
51557;DHT22;38766;53.194;5.532;2024-03-23T09:51:25;9.30;99.90
51557;DHT22;38766;53.194;5.532;2024-03-23T09:53:51;9.60;99.90
51557;DHT22;38766;53.194;5.532;2024-03-23T09:56:17;9.80;99.90
51557;DHT22;38766;53.194;5.532;2024-03-23T09:58:43;9.90;99.90
51557;DHT22;38766;53.194;5.532;2024-03-23T10:01:09;9.70;99.90
51557;DHT22;38766;53.194;5.532;2024-03-23T10:03:47;9.50;99.90
51557;DHT22;38766;53.194;5.532;2024-03-23T10:06:12;9.30;99.90
51557;DHT22;38766;53.194;5.532;2024-03-23T10:08:38;9.10;99.90
51557;DHT22;38766;53.194;5.532;2024-03-23T10:11:16;9.00;99.90
51557;DHT22;38766;53.194;5.532;2024-03-23T10:13:43;9.10;99.90
51557;DHT22;38766;53.194;5.532;2024-03-23T10:16:10;9.40;99.90
51557;DHT22;38766;53.194;5.532;2024-03-23T10:18:39;9.70;99.90
51557;DHT22;38766;53.194;5.532;2024-03-23T10:23:34;10.30;99.90
51557;DHT22;38766;53.194;5.532;2024-03-23T10:26:20;10.70;99.90
51557;DHT22;38766;53.194;5.532;2024-03-23T10:28:59;11.00;99.90
51557;DHT22;38766;53.194;5.532;2024-03-23T10:31:27;11.20;99.90
51557;DHT22;38766;53.194;5.532;2024-03-23T10:33:53;11.30;99.90
51557;DHT22;38766;53.194;5.532;2024-03-23T10:36:21;11.20;99.90
51557;DHT22;38766;53.194;5.532;2024-03-23T10:38:48;11.00;99.90
51557;DHT22;38766;53.194;5.532;2024-03-23T10:41:15;10.80;99.90
51557;DHT22;38766;53.194;5.532;2024-03-23T10:43:41;10.80;99.90
51557;DHT22;38766;53.194;5.532;2024-03-23T10:46:08;10.90;99.90
51557;DHT22;38766;53.194;5.532;2024-03-23T10:48:34;11.00;99.90
51557;DHT22;38766;53.194;5.532;2024-03-23T10:51:00;10.90;99.90
51557;DHT22;38766;53.194;5.532;2024-03-23T10:53:27;10.70;99.90
51557;DHT22;38766;53.194;5.532;2024-03-23T10:55:54;10.40;99.90
51557;DHT22;38766;53.194;5.532;2024-03-23T10:58:28;10.20;99.90
51557;DHT22;38766;53.194;5.532;2024-03-23T11:00:54;10.20;99.90
51557;DHT22;38766;53.194;5.532;2024-03-23T11:03:36;10.50;99.90
51557;DHT22;38766;53.194;5.532;2024-03-23T11:06:03;10.80;99.90
51557;DHT22;38766;53.194;5.532;2024-03-23T11:08:39;11.10;99.90
51557;DHT22;38766;53.194;5.532;2024-03-23T11:11:25;11.10;99.90
51557;DHT22;38766;53.194;5.532;2024-03-23T11:13:53;10.80;99.90
51557;DHT22;38766;53.194;5.532;2024-03-23T11:16:26;10.40;99.90
51557;DHT22;38766;53.194;5.532;2024-03-23T11:19:34;10.10;99.90
51557;DHT22;38766;53.194;5.532;2024-03-23T11:22:01;9.90;99.90
51557;DHT22;38766;53.194;5.532;2024-03-23T11:24:27;10.00;99.90
51557;DHT22;38766;53.194;5.532;2024-03-23T11:26:53;10.30;99.90
51557;DHT22;38766;53.194;5.532;2024-03-23T11:29:19;10.50;99.90
51557;DHT22;38766;53.194;5.532;2024-03-23T11:31:48;10.50;99.90
51557;DHT22;38766;53.194;5.532;2024-03-23T11:34:18;10.40;99.90
51557;DHT22;38766;53.194;5.532;2024-03-23T11:36:45;10.30;99.90
51557;DHT22;38766;53.194;5.532;2024-03-23T11:39:15;10.20;99.90
51557;DHT22;38766;53.194;5.532;2024-03-23T11:41:52;10.10;99.90
51557;DHT22;38766;53.194;5.532;2024-03-23T11:44:27;10.00;99.90
51557;DHT22;38766;53.194;5.532;2024-03-23T11:46:53;10.00;99.90
51557;DHT22;38766;53.194;5.532;2024-03-23T11:51:51;9.70;99.90
51557;DHT22;38766;53.194;5.532;2024-03-23T11:54:20;9.50;99.90
51557;DHT22;38766;53.194;5.532;2024-03-23T11:57:00;9.50;99.90
51557;DHT22;38766;53.194;5.532;2024-03-23T11:59:39;9.50;99.90
51557;DHT22;38766;53.194;5.532;2024-03-23T12:02:11;9.60;99.90
51557;DHT22;38766;53.194;5.532;2024-03-23T12:04:40;9.50;99.90
51557;DHT22;38766;53.194;5.532;2024-03-23T12:07:19;9.50;99.90
51557;DHT22;38766;53.194;5.532;2024-03-23T12:09:47;9.60;99.90
51557;DHT22;38766;53.194;5.532;2024-03-23T12:12:17;9.50;99.90
51557;DHT22;38766;53.194;5.532;2024-03-23T12:14:44;9.40;99.90
51557;DHT22;38766;53.194;5.532;2024-03-23T12:17:13;9.60;99.90
51557;DHT22;38766;53.194;5.532;2024-03-23T12:19:40;9.80;99.90
51557;DHT22;38766;53.194;5.532;2024-03-23T12:22:07;9.80;99.90
51557;DHT22;38766;53.194;5.532;2024-03-23T12:24:34;9.70;99.90
51557;DHT22;38766;53.194;5.532;2024-03-23T12:27:03;9.60;99.90
51557;DHT22;38766;53.194;5.532;2024-03-23T12:29:31;9.50;99.90
51557;DHT22;38766;53.194;5.532;2024-03-23T12:32:02;9.30;99.90
51557;DHT22;38766;53.194;5.532;2024-03-23T12:34:28;9.10;99.90
51557;DHT22;38766;53.194;5.532;2024-03-23T12:36:55;9.00;99.90
51557;DHT22;38766;53.194;5.532;2024-03-23T12:39:21;8.70;99.90
51557;DHT22;38766;53.194;5.532;2024-03-23T12:41:47;8.50;99.90
51557;DHT22;38766;53.194;5.532;2024-03-23T12:44:13;8.30;99.90
51557;DHT22;38766;53.194;5.532;2024-03-23T12:46:41;8.10;99.90
51557;DHT22;38766;53.194;5.532;2024-03-23T12:49:06;7.90;99.90
51557;DHT22;38766;53.194;5.532;2024-03-23T12:51:32;7.80;99.90
51557;DHT22;38766;53.194;5.532;2024-03-23T12:53:58;7.70;99.90
51557;DHT22;38766;53.194;5.532;2024-03-23T12:56:24;7.60;99.90
51557;DHT22;38766;53.194;5.532;2024-03-23T12:58:49;7.60;99.90
51557;DHT22;38766;53.194;5.532;2024-03-23T13:01:19;7.70;99.90
51557;DHT22;38766;53.194;5.532;2024-03-23T13:03:48;7.70;99.90
51557;DHT22;38766;53.194;5.532;2024-03-23T13:06:15;7.70;99.90
51557;DHT22;38766;53.194;5.532;2024-03-23T13:08:40;7.70;99.90
51557;DHT22;38766;53.194;5.532;2024-03-23T13:11:07;7.60;99.90
51557;DHT22;38766;53.194;5.532;2024-03-23T13:13:36;7.50;99.90
51557;DHT22;38766;53.194;5.532;2024-03-23T13:16:02;7.50;99.90
51557;DHT22;38766;53.194;5.532;2024-03-23T13:18:29;7.30;99.90
51557;DHT22;38766;53.194;5.532;2024-03-23T13:20:55;7.30;99.90
51557;DHT22;38766;53.194;5.532;2024-03-23T13:23:21;7.20;99.90
51557;DHT22;38766;53.194;5.532;2024-03-23T13:25:53;7.20;99.90
51557;DHT22;38766;53.194;5.532;2024-03-23T13:28:20;7.20;99.90
51557;DHT22;38766;53.194;5.532;2024-03-23T13:30:56;7.40;99.90
51557;DHT22;38766;53.194;5.532;2024-03-23T13:33:29;7.60;99.90
51557;DHT22;38766;53.194;5.532;2024-03-23T13:35:55;7.80;99.90
51557;DHT22;38766;53.194;5.532;2024-03-23T13:38:22;7.90;99.90
51557;DHT22;38766;53.194;5.532;2024-03-23T13:40:56;7.90;99.90
51557;DHT22;38766;53.194;5.532;2024-03-23T13:43:23;7.90;99.90
51557;DHT22;38766;53.194;5.532;2024-03-23T13:45:51;7.90;99.90
51557;DHT22;38766;53.194;5.532;2024-03-23T13:48:19;7.90;99.90
51557;DHT22;38766;53.194;5.532;2024-03-23T13:50:45;8.10;99.90
51557;DHT22;38766;53.194;5.532;2024-03-23T13:53:12;8.30;99.90
51557;DHT22;38766;53.194;5.532;2024-03-23T13:55:46;8.40;99.90
51557;DHT22;38766;53.194;5.532;2024-03-23T13:58:13;8.60;99.90
51557;DHT22;38766;53.194;5.532;2024-03-23T14:00:38;8.70;99.90
51557;DHT22;38766;53.194;5.532;2024-03-23T14:03:04;8.80;99.90
51557;DHT22;38766;53.194;5.532;2024-03-23T14:05:31;9.00;99.90
51557;DHT22;38766;53.194;5.532;2024-03-23T14:07:56;9.20;99.90
51557;DHT22;38766;53.194;5.532;2024-03-23T14:10:22;9.30;99.90
51557;DHT22;38766;53.194;5.532;2024-03-23T14:12:47;9.50;99.90
51557;DHT22;38766;53.194;5.532;2024-03-23T14:15:13;9.60;99.90
51557;DHT22;38766;53.194;5.532;2024-03-23T14:17:38;9.70;99.90
51557;DHT22;38766;53.194;5.532;2024-03-23T14:20:05;9.70;99.90
51557;DHT22;38766;53.194;5.532;2024-03-23T14:22:31;9.60;99.90
51557;DHT22;38766;53.194;5.532;2024-03-23T14:24:57;9.60;99.90
51557;DHT22;38766;53.194;5.532;2024-03-23T14:27:24;9.40;99.90
51557;DHT22;38766;53.194;5.532;2024-03-23T14:29:49;9.40;99.90
51557;DHT22;38766;53.194;5.532;2024-03-23T14:32:15;9.30;99.90
51557;DHT22;38766;53.194;5.532;2024-03-23T14:34:41;9.20;99.90
51557;DHT22;38766;53.194;5.532;2024-03-23T14:37:07;9.10;99.90
51557;DHT22;38766;53.194;5.532;2024-03-23T14:39:33;9.00;99.90
51557;DHT22;38766;53.194;5.532;2024-03-23T14:42:04;8.90;99.90
51557;DHT22;38766;53.194;5.532;2024-03-23T14:44:31;8.90;99.90
51557;DHT22;38766;53.194;5.532;2024-03-23T14:46:57;9.10;99.90
51557;DHT22;38766;53.194;5.532;2024-03-23T14:49:22;9.20;99.90
51557;DHT22;38766;53.194;5.532;2024-03-23T14:51:48;9.20;99.90
51557;DHT22;38766;53.194;5.532;2024-03-23T14:54:14;9.20;99.90
51557;DHT22;38766;53.194;5.532;2024-03-23T14:56:40;9.20;99.90
51557;DHT22;38766;53.194;5.532;2024-03-23T14:59:06;9.10;99.90
51557;DHT22;38766;53.194;5.532;2024-03-23T15:01:32;9.20;99.90
51557;DHT22;38766;53.194;5.532;2024-03-23T15:03:58;9.20;99.90
51557;DHT22;38766;53.194;5.532;2024-03-23T15:06:23;9.10;99.90
51557;DHT22;38766;53.194;5.532;2024-03-23T15:08:49;9.20;99.90
51557;DHT22;38766;53.194;5.532;2024-03-23T15:11:15;9.40;99.90
51557;DHT22;38766;53.194;5.532;2024-03-23T15:13:43;9.40;99.90
51557;DHT22;38766;53.194;5.532;2024-03-23T15:16:09;9.40;99.90
51557;DHT22;38766;53.194;5.532;2024-03-23T15:18:35;9.40;99.90
51557;DHT22;38766;53.194;5.532;2024-03-23T15:21:02;9.40;99.90
51557;DHT22;38766;53.194;5.532;2024-03-23T15:23:29;9.50;99.90
51557;DHT22;38766;53.194;5.532;2024-03-23T15:25:56;9.50;99.90
51557;DHT22;38766;53.194;5.532;2024-03-23T15:28:23;9.50;99.90
51557;DHT22;38766;53.194;5.532;2024-03-23T15:30:48;9.50;99.90
51557;DHT22;38766;53.194;5.532;2024-03-23T15:33:14;9.50;99.90
51557;DHT22;38766;53.194;5.532;2024-03-23T15:35:40;9.40;99.90
51557;DHT22;38766;53.194;5.532;2024-03-23T15:38:05;9.40;99.90
51557;DHT22;38766;53.194;5.532;2024-03-23T15:40:31;9.40;99.90
51557;DHT22;38766;53.194;5.532;2024-03-23T15:42:57;9.50;99.90
51557;DHT22;38766;53.194;5.532;2024-03-23T15:45:22;9.50;99.90
51557;DHT22;38766;53.194;5.532;2024-03-23T15:47:48;9.60;99.90
51557;DHT22;38766;53.194;5.532;2024-03-23T15:50:13;9.60;99.90
51557;DHT22;38766;53.194;5.532;2024-03-23T15:52:39;9.70;99.90
51557;DHT22;38766;53.194;5.532;2024-03-23T15:55:05;9.70;99.90
51557;DHT22;38766;53.194;5.532;2024-03-23T15:57:33;9.60;99.90
51557;DHT22;38766;53.194;5.532;2024-03-23T15:59:58;9.60;99.90
51557;DHT22;38766;53.194;5.532;2024-03-23T16:02:24;9.50;99.90
51557;DHT22;38766;53.194;5.532;2024-03-23T16:04:50;9.50;99.90
51557;DHT22;38766;53.194;5.532;2024-03-23T16:07:15;9.60;99.90
51557;DHT22;38766;53.194;5.532;2024-03-23T16:09:41;9.40;99.90
51557;DHT22;38766;53.194;5.532;2024-03-23T16:12:06;9.40;99.90
51557;DHT22;38766;53.194;5.532;2024-03-23T16:14:32;9.30;99.90
51557;DHT22;38766;53.194;5.532;2024-03-23T16:16:57;9.30;99.90
51557;DHT22;38766;53.194;5.532;2024-03-23T16:19:23;9.30;99.90
51557;DHT22;38766;53.194;5.532;2024-03-23T16:21:49;9.30;99.90
51557;DHT22;38766;53.194;5.532;2024-03-23T16:24:14;9.40;99.90
51557;DHT22;38766;53.194;5.532;2024-03-23T16:26:40;9.30;99.90
51557;DHT22;38766;53.194;5.532;2024-03-23T16:29:05;9.20;99.90
51557;DHT22;38766;53.194;5.532;2024-03-23T16:31:31;9.20;99.90
51557;DHT22;38766;53.194;5.532;2024-03-23T16:33:57;9.10;99.90
51557;DHT22;38766;53.194;5.532;2024-03-23T16:36:22;9.20;99.90
51557;DHT22;38766;53.194;5.532;2024-03-23T16:38:48;9.10;99.90
51557;DHT22;38766;53.194;5.532;2024-03-23T16:41:14;9.10;99.90
51557;DHT22;38766;53.194;5.532;2024-03-23T16:43:43;9.10;99.90
51557;DHT22;38766;53.194;5.532;2024-03-23T16:46:13;9.00;99.90
51557;DHT22;38766;53.194;5.532;2024-03-23T16:48:40;8.90;99.90